sensor_id;sensor_type;location;lat;lon;timestamp;temperature;humidity
18948;DHT22;9607;51.600;7.558;2022-12-11T00:29:15;1.10;99.90
18948;DHT22;9607;51.600;7.558;2022-12-11T00:31:43;1.10;99.90
18948;DHT22;9607;51.600;7.558;2022-12-11T00:34:09;1.00;99.90
18948;DHT22;9607;51.600;7.558;2022-12-11T00:36:37;1.00;99.90
18948;DHT22;9607;51.600;7.558;2022-12-11T00:39:05;1.00;99.90
18948;DHT22;9607;51.600;7.558;2022-12-11T00:41:32;1.00;99.90
18948;DHT22;9607;51.600;7.558;2022-12-11T00:43:59;1.00;99.90
18948;DHT22;9607;51.600;7.558;2022-12-11T00:46:27;0.90;99.90
18948;DHT22;9607;51.600;7.558;2022-12-11T00:48:55;1.00;99.90
18948;DHT22;9607;51.600;7.558;2022-12-11T00:51:22;0.90;99.90
18948;DHT22;9607;51.600;7.558;2022-12-11T00:53:49;1.00;99.90
18948;DHT22;9607;51.600;7.558;2022-12-11T00:56:18;0.90;99.90
18948;DHT22;9607;51.600;7.558;2022-12-11T00:58:47;1.00;99.90
18948;DHT22;9607;51.600;7.558;2022-12-11T01:01:15;0.90;99.90
18948;DHT22;9607;51.600;7.558;2022-12-11T01:03:44;0.90;99.90
18948;DHT22;9607;51.600;7.558;2022-12-11T01:06:13;0.90;99.90
18948;DHT22;9607;51.600;7.558;2022-12-11T01:08:40;0.90;99.90
18948;DHT22;9607;51.600;7.558;2022-12-11T01:11:09;0.80;99.90
18948;DHT22;9607;51.600;7.558;2022-12-11T01:13:36;0.80;99.90
18948;DHT22;9607;51.600;7.558;2022-12-11T01:16:06;0.70;99.90
18948;DHT22;9607;51.600;7.558;2022-12-11T01:18:33;0.80;99.90
18948;DHT22;9607;51.600;7.558;2022-12-11T01:21:06;0.80;99.90
18948;DHT22;9607;51.600;7.558;2022-12-11T01:23:33;0.80;99.90
18948;DHT22;9607;51.600;7.558;2022-12-11T01:26:04;0.80;99.90
18948;DHT22;9607;51.600;7.558;2022-12-11T01:28:31;0.70;99.90
18948;DHT22;9607;51.600;7.558;2022-12-11T01:30:58;0.70;99.90
18948;DHT22;9607;51.600;7.558;2022-12-11T01:33:25;0.70;99.90
18948;DHT22;9607;51.600;7.558;2022-12-11T01:35:52;0.70;99.90
18948;DHT22;9607;51.600;7.558;2022-12-11T01:38:20;0.70;99.90
18948;DHT22;9607;51.600;7.558;2022-12-11T01:40:48;0.70;99.90
18948;DHT22;9607;51.600;7.558;2022-12-11T01:43:15;0.70;99.90
18948;DHT22;9607;51.600;7.558;2022-12-11T01:45:43;0.60;99.90
18948;DHT22;9607;51.600;7.558;2022-12-11T01:48:13;0.70;99.90
18948;DHT22;9607;51.600;7.558;2022-12-11T01:50:44;0.70;99.90
18948;DHT22;9607;51.600;7.558;2022-12-11T01:53:19;0.70;99.90
18948;DHT22;9607;51.600;7.558;2022-12-11T01:55:49;0.70;99.90
18948;DHT22;9607;51.600;7.558;2022-12-11T01:58:17;0.70;99.90
18948;DHT22;9607;51.600;7.558;2022-12-11T02:00:45;0.70;99.90
18948;DHT22;9607;51.600;7.558;2022-12-11T02:03:12;0.80;99.90
18948;DHT22;9607;51.600;7.558;2022-12-11T02:05:39;0.80;99.90
18948;DHT22;9607;51.600;7.558;2022-12-11T02:08:06;0.90;99.90
18948;DHT22;9607;51.600;7.558;2022-12-11T02:10:46;0.90;99.90
18948;DHT22;9607;51.600;7.558;2022-12-11T02:13:20;0.90;99.90
18948;DHT22;9607;51.600;7.558;2022-12-11T02:15:52;1.00;99.90
18948;DHT22;9607;51.600;7.558;2022-12-11T02:18:29;1.00;99.90
18948;DHT22;9607;51.600;7.558;2022-12-11T02:21:01;1.00;99.90
18948;DHT22;9607;51.600;7.558;2022-12-11T02:26:33;1.10;99.90
18948;DHT22;9607;51.600;7.558;2022-12-11T02:29:07;1.10;99.90
18948;DHT22;9607;51.600;7.558;2022-12-11T02:31:37;1.10;99.90
18948;DHT22;9607;51.600;7.558;2022-12-11T02:34:09;1.10;99.90
18948;DHT22;9607;51.600;7.558;2022-12-11T02:36:39;1.20;99.90
18948;DHT22;9607;51.600;7.558;2022-12-11T02:39:10;1.20;99.90
18948;DHT22;9607;51.600;7.558;2022-12-11T02:41:38;1.20;99.90
18948;DHT22;9607;51.600;7.558;2022-12-11T02:44:13;1.20;99.90
18948;DHT22;9607;51.600;7.558;2022-12-11T02:46:41;1.30;99.90
18948;DHT22;9607;51.600;7.558;2022-12-11T02:49:11;1.30;99.90
18948;DHT22;9607;51.600;7.558;2022-12-11T02:51:40;1.30;99.90
18948;DHT22;9607;51.600;7.558;2022-12-11T02:54:13;1.30;99.90
18948;DHT22;9607;51.600;7.558;2022-12-11T02:56:44;1.30;99.90
18948;DHT22;9607;51.600;7.558;2022-12-11T02:59:18;1.30;99.90
18948;DHT22;9607;51.600;7.558;2022-12-11T03:01:46;1.30;99.90
18948;DHT22;9607;51.600;7.558;2022-12-11T03:04:13;1.30;99.90
18948;DHT22;9607;51.600;7.558;2022-12-11T03:06:42;1.30;99.90
18948;DHT22;9607;51.600;7.558;2022-12-11T03:09:11;1.30;99.90
18948;DHT22;9607;51.600;7.558;2022-12-11T03:11:38;1.30;99.90
18948;DHT22;9607;51.600;7.558;2022-12-11T03:14:05;1.20;99.90
18948;DHT22;9607;51.600;7.558;2022-12-11T03:16:36;1.20;99.90
18948;DHT22;9607;51.600;7.558;2022-12-11T03:19:10;1.30;99.90
18948;DHT22;9607;51.600;7.558;2022-12-11T03:21:45;1.30;99.90
18948;DHT22;9607;51.600;7.558;2022-12-11T03:24:19;1.30;99.90
18948;DHT22;9607;51.600;7.558;2022-12-11T03:26:51;1.30;99.90
18948;DHT22;9607;51.600;7.558;2022-12-11T03:29:22;1.40;99.90
18948;DHT22;9607;51.600;7.558;2022-12-11T03:31:54;1.40;99.90
18948;DHT22;9607;51.600;7.558;2022-12-11T03:34:24;1.40;99.90
18948;DHT22;9607;51.600;7.558;2022-12-11T03:36:54;1.40;99.90
18948;DHT22;9607;51.600;7.558;2022-12-11T03:39:26;1.50;99.90
18948;DHT22;9607;51.600;7.558;2022-12-11T03:41:54;1.50;99.90
18948;DHT22;9607;51.600;7.558;2022-12-11T03:44:22;1.50;99.90
18948;DHT22;9607;51.600;7.558;2022-12-11T03:46:52;1.50;99.90
18948;DHT22;9607;51.600;7.558;2022-12-11T03:49:21;1.60;99.90
18948;DHT22;9607;51.600;7.558;2022-12-11T03:51:51;1.60;99.90
18948;DHT22;9607;51.600;7.558;2022-12-11T03:54:19;1.60;99.90
18948;DHT22;9607;51.600;7.558;2022-12-11T03:56:47;1.60;99.90
18948;DHT22;9607;51.600;7.558;2022-12-11T03:59:16;1.60;99.90
18948;DHT22;9607;51.600;7.558;2022-12-11T04:01:43;1.60;99.90
18948;DHT22;9607;51.600;7.558;2022-12-11T04:04:11;1.60;99.90
18948;DHT22;9607;51.600;7.558;2022-12-11T04:06:38;1.60;99.90
18948;DHT22;9607;51.600;7.558;2022-12-11T04:09:05;1.60;99.90
18948;DHT22;9607;51.600;7.558;2022-12-11T04:11:32;1.60;99.90
18948;DHT22;9607;51.600;7.558;2022-12-11T04:14:03;1.60;99.90
18948;DHT22;9607;51.600;7.558;2022-12-11T04:16:47;1.60;99.90
18948;DHT22;9607;51.600;7.558;2022-12-11T04:19:15;1.60;99.90
18948;DHT22;9607;51.600;7.558;2022-12-11T04:21:59;1.60;99.90
18948;DHT22;9607;51.600;7.558;2022-12-11T04:24:52;1.60;99.90
18948;DHT22;9607;51.600;7.558;2022-12-11T04:27:19;1.50;99.90
18948;DHT22;9607;51.600;7.558;2022-12-11T04:29:59;1.50;99.90
18948;DHT22;9607;51.600;7.558;2022-12-11T04:32:26;1.50;99.90
18948;DHT22;9607;51.600;7.558;2022-12-11T04:34:54;1.50;99.90
18948;DHT22;9607;51.600;7.558;2022-12-11T04:37:21;1.50;99.90
18948;DHT22;9607;51.600;7.558;2022-12-11T04:39:48;1.50;99.90
18948;DHT22;9607;51.600;7.558;2022-12-11T04:42:15;1.50;99.90
18948;DHT22;9607;51.600;7.558;2022-12-11T04:44:42;1.50;99.90
18948;DHT22;9607;51.600;7.558;2022-12-11T04:47:08;1.50;99.90
18948;DHT22;9607;51.600;7.558;2022-12-11T04:49:35;1.50;99.90
18948;DHT22;9607;51.600;7.558;2022-12-11T04:52:04;1.50;99.90
18948;DHT22;9607;51.600;7.558;2022-12-11T04:54:31;1.50;99.90
18948;DHT22;9607;51.600;7.558;2022-12-11T04:56:59;1.50;99.90
18948;DHT22;9607;51.600;7.558;2022-12-11T04:59:25;1.40;99.90
18948;DHT22;9607;51.600;7.558;2022-12-11T05:01:52;1.50;99.90
18948;DHT22;9607;51.600;7.558;2022-12-11T05:04:19;1.50;99.90
18948;DHT22;9607;51.600;7.558;2022-12-11T05:06:48;1.50;99.90
18948;DHT22;9607;51.600;7.558;2022-12-11T05:09:16;1.50;99.90
18948;DHT22;9607;51.600;7.558;2022-12-11T05:11:43;1.50;99.90
18948;DHT22;9607;51.600;7.558;2022-12-11T05:14:10;1.50;99.90
18948;DHT22;9607;51.600;7.558;2022-12-11T05:16:37;1.40;99.90
18948;DHT22;9607;51.600;7.558;2022-12-11T05:19:04;1.40;99.90
18948;DHT22;9607;51.600;7.558;2022-12-11T05:21:31;1.40;99.90
18948;DHT22;9607;51.600;7.558;2022-12-11T05:23:58;1.40;99.90
18948;DHT22;9607;51.600;7.558;2022-12-11T05:26:26;1.40;99.90
18948;DHT22;9607;51.600;7.558;2022-12-11T05:28:54;1.40;99.90
18948;DHT22;9607;51.600;7.558;2022-12-11T05:31:23;1.40;99.90
18948;DHT22;9607;51.600;7.558;2022-12-11T05:33:50;1.40;99.90
18948;DHT22;9607;51.600;7.558;2022-12-11T05:36:19;1.40;99.90
18948;DHT22;9607;51.600;7.558;2022-12-11T05:38:47;1.40;99.90
18948;DHT22;9607;51.600;7.558;2022-12-11T05:41:16;1.40;99.90
18948;DHT22;9607;51.600;7.558;2022-12-11T05:43:44;1.40;99.90
18948;DHT22;9607;51.600;7.558;2022-12-11T05:46:12;1.40;99.90
18948;DHT22;9607;51.600;7.558;2022-12-11T05:48:40;1.40;99.90
18948;DHT22;9607;51.600;7.558;2022-12-11T05:51:08;1.40;99.90
18948;DHT22;9607;51.600;7.558;2022-12-11T05:53:35;1.40;99.90
18948;DHT22;9607;51.600;7.558;2022-12-11T05:56:03;1.40;99.90
18948;DHT22;9607;51.600;7.558;2022-12-11T05:58:30;1.50;99.90
18948;DHT22;9607;51.600;7.558;2022-12-11T06:00:59;1.50;99.90
18948;DHT22;9607;51.600;7.558;2022-12-11T06:03:26;1.50;99.90
18948;DHT22;9607;51.600;7.558;2022-12-11T06:05:53;1.50;99.90
18948;DHT22;9607;51.600;7.558;2022-12-11T06:08:19;1.60;99.90
18948;DHT22;9607;51.600;7.558;2022-12-11T06:10:47;1.50;99.90
18948;DHT22;9607;51.600;7.558;2022-12-11T06:13:14;1.50;99.90
18948;DHT22;9607;51.600;7.558;2022-12-11T06:15:41;1.50;99.90
18948;DHT22;9607;51.600;7.558;2022-12-11T06:18:09;1.50;99.90
18948;DHT22;9607;51.600;7.558;2022-12-11T06:20:36;1.50;99.90
18948;DHT22;9607;51.600;7.558;2022-12-11T06:23:03;1.50;99.90
18948;DHT22;9607;51.600;7.558;2022-12-11T06:25:30;1.50;99.90
18948;DHT22;9607;51.600;7.558;2022-12-11T06:27:58;1.50;99.90
18948;DHT22;9607;51.600;7.558;2022-12-11T06:30:24;1.50;99.90
18948;DHT22;9607;51.600;7.558;2022-12-11T06:32:51;1.50;99.90
18948;DHT22;9607;51.600;7.558;2022-12-11T06:35:19;1.50;99.90
18948;DHT22;9607;51.600;7.558;2022-12-11T06:37:46;1.50;99.90
18948;DHT22;9607;51.600;7.558;2022-12-11T06:40:13;1.50;99.90
18948;DHT22;9607;51.600;7.558;2022-12-11T06:42:40;1.60;99.90
18948;DHT22;9607;51.600;7.558;2022-12-11T06:45:08;1.60;99.90
18948;DHT22;9607;51.600;7.558;2022-12-11T06:47:35;1.60;99.90
18948;DHT22;9607;51.600;7.558;2022-12-11T06:50:02;1.60;99.90
18948;DHT22;9607;51.600;7.558;2022-12-11T06:52:30;1.60;99.90
18948;DHT22;9607;51.600;7.558;2022-12-11T06:54:57;1.60;99.90
18948;DHT22;9607;51.600;7.558;2022-12-11T06:57:24;1.60;99.90
18948;DHT22;9607;51.600;7.558;2022-12-11T06:59:51;1.60;99.90
18948;DHT22;9607;51.600;7.558;2022-12-11T07:02:19;1.60;99.90
18948;DHT22;9607;51.600;7.558;2022-12-11T07:04:46;1.70;99.90
18948;DHT22;9607;51.600;7.558;2022-12-11T07:07:12;1.70;99.90
18948;DHT22;9607;51.600;7.558;2022-12-11T07:09:41;1.70;99.90
18948;DHT22;9607;51.600;7.558;2022-12-11T07:12:07;1.70;99.90
18948;DHT22;9607;51.600;7.558;2022-12-11T07:14:35;1.70;99.90
18948;DHT22;9607;51.600;7.558;2022-12-11T07:17:02;1.70;99.90
18948;DHT22;9607;51.600;7.558;2022-12-11T07:19:30;1.70;99.90
18948;DHT22;9607;51.600;7.558;2022-12-11T07:21:57;1.70;99.90
18948;DHT22;9607;51.600;7.558;2022-12-11T07:24:24;1.70;99.90
18948;DHT22;9607;51.600;7.558;2022-12-11T07:26:53;1.70;99.90
18948;DHT22;9607;51.600;7.558;2022-12-11T07:29:19;1.80;99.90
18948;DHT22;9607;51.600;7.558;2022-12-11T07:36:57;1.80;99.90
18948;DHT22;9607;51.600;7.558;2022-12-11T07:42:18;1.80;99.90
18948;DHT22;9607;51.600;7.558;2022-12-11T07:44:45;1.70;99.90
18948;DHT22;9607;51.600;7.558;2022-12-11T07:47:12;1.80;99.90
18948;DHT22;9607;51.600;7.558;2022-12-11T07:49:39;1.80;99.90
18948;DHT22;9607;51.600;7.558;2022-12-11T07:52:06;1.80;99.90
18948;DHT22;9607;51.600;7.558;2022-12-11T07:57:09;1.90;99.90
18948;DHT22;9607;51.600;7.558;2022-12-11T07:59:38;2.00;99.90
18948;DHT22;9607;51.600;7.558;2022-12-11T08:02:07;2.00;99.90
18948;DHT22;9607;51.600;7.558;2022-12-11T08:04:35;2.00;99.90
18948;DHT22;9607;51.600;7.558;2022-12-11T08:07:02;1.90;99.90
18948;DHT22;9607;51.600;7.558;2022-12-11T08:09:29;2.00;99.90
18948;DHT22;9607;51.600;7.558;2022-12-11T08:11:57;2.00;99.90
18948;DHT22;9607;51.600;7.558;2022-12-11T08:14:24;2.10;99.90
18948;DHT22;9607;51.600;7.558;2022-12-11T08:16:55;2.10;99.90
18948;DHT22;9607;51.600;7.558;2022-12-11T08:19:24;2.00;99.90
18948;DHT22;9607;51.600;7.558;2022-12-11T08:21:51;2.10;99.90
18948;DHT22;9607;51.600;7.558;2022-12-11T08:24:19;2.00;99.90
18948;DHT22;9607;51.600;7.558;2022-12-11T08:26:46;2.00;99.90
18948;DHT22;9607;51.600;7.558;2022-12-11T08:29:14;2.00;99.90
18948;DHT22;9607;51.600;7.558;2022-12-11T08:31:41;2.00;99.90
18948;DHT22;9607;51.600;7.558;2022-12-11T08:34:10;2.00;99.90
18948;DHT22;9607;51.600;7.558;2022-12-11T08:36:40;2.00;99.90
18948;DHT22;9607;51.600;7.558;2022-12-11T08:39:09;2.10;99.90
18948;DHT22;9607;51.600;7.558;2022-12-11T08:41:36;2.10;99.90
18948;DHT22;9607;51.600;7.558;2022-12-11T08:44:03;2.10;99.90
18948;DHT22;9607;51.600;7.558;2022-12-11T08:46:31;2.10;99.90
18948;DHT22;9607;51.600;7.558;2022-12-11T08:51:36;2.20;99.90
18948;DHT22;9607;51.600;7.558;2022-12-11T08:54:08;2.20;99.90
18948;DHT22;9607;51.600;7.558;2022-12-11T08:56:35;2.20;99.90
18948;DHT22;9607;51.600;7.558;2022-12-11T08:59:02;2.20;99.90
18948;DHT22;9607;51.600;7.558;2022-12-11T09:01:31;2.20;99.90
18948;DHT22;9607;51.600;7.558;2022-12-11T09:03:58;2.30;99.90
18948;DHT22;9607;51.600;7.558;2022-12-11T09:09:22;2.30;99.90
18948;DHT22;9607;51.600;7.558;2022-12-11T09:11:58;2.40;99.90
18948;DHT22;9607;51.600;7.558;2022-12-11T09:17:56;2.40;99.90
18948;DHT22;9607;51.600;7.558;2022-12-11T09:20:23;2.40;99.90
18948;DHT22;9607;51.600;7.558;2022-12-11T09:22:51;2.40;99.90
18948;DHT22;9607;51.600;7.558;2022-12-11T09:25:19;2.40;99.90
18948;DHT22;9607;51.600;7.558;2022-12-11T09:27:47;2.40;99.90
18948;DHT22;9607;51.600;7.558;2022-12-11T09:30:26;2.50;99.90
18948;DHT22;9607;51.600;7.558;2022-12-11T09:32:57;2.50;99.90
18948;DHT22;9607;51.600;7.558;2022-12-11T09:35:39;2.60;99.90
18948;DHT22;9607;51.600;7.558;2022-12-11T09:38:07;2.50;99.90
18948;DHT22;9607;51.600;7.558;2022-12-11T09:40:49;2.50;99.90
18948;DHT22;9607;51.600;7.558;2022-12-11T09:43:45;2.50;99.90
18948;DHT22;9607;51.600;7.558;2022-12-11T09:46:16;2.50;99.90
18948;DHT22;9607;51.600;7.558;2022-12-11T09:48:54;2.50;99.90
18948;DHT22;9607;51.600;7.558;2022-12-11T09:51:25;2.50;99.90
18948;DHT22;9607;51.600;7.558;2022-12-11T09:53:58;2.50;99.90
18948;DHT22;9607;51.600;7.558;2022-12-11T09:56:38;2.50;99.90
18948;DHT22;9607;51.600;7.558;2022-12-11T09:59:17;2.50;99.90
18948;DHT22;9607;51.600;7.558;2022-12-11T10:01:54;2.50;99.90
18948;DHT22;9607;51.600;7.558;2022-12-11T10:04:36;2.60;99.90
18948;DHT22;9607;51.600;7.558;2022-12-11T10:07:10;2.60;99.90
18948;DHT22;9607;51.600;7.558;2022-12-11T10:09:46;2.70;99.90
18948;DHT22;9607;51.600;7.558;2022-12-11T10:12:29;2.70;99.90
18948;DHT22;9607;51.600;7.558;2022-12-11T10:15:23;2.70;99.90
18948;DHT22;9607;51.600;7.558;2022-12-11T10:17:55;2.80;99.90
18948;DHT22;9607;51.600;7.558;2022-12-11T10:20:25;2.80;99.90
18948;DHT22;9607;51.600;7.558;2022-12-11T10:23:17;2.70;99.90
18948;DHT22;9607;51.600;7.558;2022-12-11T10:25:51;2.80;99.90
18948;DHT22;9607;51.600;7.558;2022-12-11T10:28:30;2.80;99.90
18948;DHT22;9607;51.600;7.558;2022-12-11T10:31:03;2.80;99.90
18948;DHT22;9607;51.600;7.558;2022-12-11T10:33:42;2.80;99.90
18948;DHT22;9607;51.600;7.558;2022-12-11T10:36:29;2.70;99.90
18948;DHT22;9607;51.600;7.558;2022-12-11T10:38:58;2.70;99.90
18948;DHT22;9607;51.600;7.558;2022-12-11T10:41:38;2.70;99.90
18948;DHT22;9607;51.600;7.558;2022-12-11T10:44:23;2.70;99.90
18948;DHT22;9607;51.600;7.558;2022-12-11T10:47:01;2.70;99.90
18948;DHT22;9607;51.600;7.558;2022-12-11T10:49:31;2.70;99.90
18948;DHT22;9607;51.600;7.558;2022-12-11T10:51:59;2.70;99.90
18948;DHT22;9607;51.600;7.558;2022-12-11T10:54:44;2.70;99.90
18948;DHT22;9607;51.600;7.558;2022-12-11T10:57:31;2.70;99.90
18948;DHT22;9607;51.600;7.558;2022-12-11T11:00:34;2.70;99.90
18948;DHT22;9607;51.600;7.558;2022-12-11T11:03:16;2.70;99.90
18948;DHT22;9607;51.600;7.558;2022-12-11T11:06:13;2.70;99.90
18948;DHT22;9607;51.600;7.558;2022-12-11T11:08:42;2.80;99.90
18948;DHT22;9607;51.600;7.558;2022-12-11T11:11:21;2.70;99.90
18948;DHT22;9607;51.600;7.558;2022-12-11T11:13:49;2.80;99.90
18948;DHT22;9607;51.600;7.558;2022-12-11T11:16:19;2.80;99.90
18948;DHT22;9607;51.600;7.558;2022-12-11T11:18:52;2.90;99.90
18948;DHT22;9607;51.600;7.558;2022-12-11T11:21:45;2.90;99.90
18948;DHT22;9607;51.600;7.558;2022-12-11T11:24:26;2.80;99.90
18948;DHT22;9607;51.600;7.558;2022-12-11T11:26:55;2.80;99.90
18948;DHT22;9607;51.600;7.558;2022-12-11T11:29:29;2.90;99.90
18948;DHT22;9607;51.600;7.558;2022-12-11T11:32:16;2.90;99.90
18948;DHT22;9607;51.600;7.558;2022-12-11T11:35:10;2.90;99.90
18948;DHT22;9607;51.600;7.558;2022-12-11T11:41:24;3.00;99.90
18948;DHT22;9607;51.600;7.558;2022-12-11T11:43:55;2.90;99.90
18948;DHT22;9607;51.600;7.558;2022-12-11T11:46:25;2.90;99.90
18948;DHT22;9607;51.600;7.558;2022-12-11T11:49:02;2.90;99.90
18948;DHT22;9607;51.600;7.558;2022-12-11T11:51:35;2.80;99.90
18948;DHT22;9607;51.600;7.558;2022-12-11T11:54:11;2.80;99.90
18948;DHT22;9607;51.600;7.558;2022-12-11T11:56:39;2.80;99.90
18948;DHT22;9607;51.600;7.558;2022-12-11T11:59:12;2.80;99.90
18948;DHT22;9607;51.600;7.558;2022-12-11T12:01:44;2.80;99.90
18948;DHT22;9607;51.600;7.558;2022-12-11T12:04:12;2.80;99.90
18948;DHT22;9607;51.600;7.558;2022-12-11T12:06:56;2.80;99.90
18948;DHT22;9607;51.600;7.558;2022-12-11T12:09:36;2.80;99.90
18948;DHT22;9607;51.600;7.558;2022-12-11T12:12:13;2.80;99.90
18948;DHT22;9607;51.600;7.558;2022-12-11T12:14:53;2.80;99.90
18948;DHT22;9607;51.600;7.558;2022-12-11T12:17:29;2.90;99.90
18948;DHT22;9607;51.600;7.558;2022-12-11T12:20:08;2.90;99.90
18948;DHT22;9607;51.600;7.558;2022-12-11T12:22:55;2.90;99.90
18948;DHT22;9607;51.600;7.558;2022-12-11T12:25:27;2.80;99.90
18948;DHT22;9607;51.600;7.558;2022-12-11T12:28:04;2.80;99.90
18948;DHT22;9607;51.600;7.558;2022-12-11T12:30:42;2.80;99.90
18948;DHT22;9607;51.600;7.558;2022-12-11T12:33:20;2.70;99.90
18948;DHT22;9607;51.600;7.558;2022-12-11T12:35:55;2.70;99.90
18948;DHT22;9607;51.600;7.558;2022-12-11T12:38:31;2.70;99.90
18948;DHT22;9607;51.600;7.558;2022-12-11T12:41:07;2.70;99.90
18948;DHT22;9607;51.600;7.558;2022-12-11T12:44:02;2.70;99.90
18948;DHT22;9607;51.600;7.558;2022-12-11T12:46:42;2.70;99.90
18948;DHT22;9607;51.600;7.558;2022-12-11T12:49:14;2.70;99.90
18948;DHT22;9607;51.600;7.558;2022-12-11T12:51:44;2.70;99.90
18948;DHT22;9607;51.600;7.558;2022-12-11T12:54:14;2.70;99.90
18948;DHT22;9607;51.600;7.558;2022-12-11T12:56:43;2.70;99.90
18948;DHT22;9607;51.600;7.558;2022-12-11T12:59:19;2.70;99.90
18948;DHT22;9607;51.600;7.558;2022-12-11T13:01:48;2.70;99.90
18948;DHT22;9607;51.600;7.558;2022-12-11T13:04:37;2.80;99.90
18948;DHT22;9607;51.600;7.558;2022-12-11T13:07:15;2.80;99.90
18948;DHT22;9607;51.600;7.558;2022-12-11T13:09:55;2.70;99.90
18948;DHT22;9607;51.600;7.558;2022-12-11T13:12:39;2.80;99.90
18948;DHT22;9607;51.600;7.558;2022-12-11T13:15:22;2.80;99.90
18948;DHT22;9607;51.600;7.558;2022-12-11T13:17:49;2.70;99.90
18948;DHT22;9607;51.600;7.558;2022-12-11T13:20:18;2.80;99.90
18948;DHT22;9607;51.600;7.558;2022-12-11T13:22:50;2.80;99.90
18948;DHT22;9607;51.600;7.558;2022-12-11T13:25:24;2.80;99.90
18948;DHT22;9607;51.600;7.558;2022-12-11T13:27:51;2.80;99.90
18948;DHT22;9607;51.600;7.558;2022-12-11T13:30:24;2.80;99.90
18948;DHT22;9607;51.600;7.558;2022-12-11T13:33:00;2.80;99.90
18948;DHT22;9607;51.600;7.558;2022-12-11T13:35:28;2.80;99.90
18948;DHT22;9607;51.600;7.558;2022-12-11T13:38:01;2.90;99.90
18948;DHT22;9607;51.600;7.558;2022-12-11T13:40:37;2.90;99.90
18948;DHT22;9607;51.600;7.558;2022-12-11T13:43:14;2.90;99.90
18948;DHT22;9607;51.600;7.558;2022-12-11T13:45:45;2.90;99.90
18948;DHT22;9607;51.600;7.558;2022-12-11T13:48:18;2.90;99.90
18948;DHT22;9607;51.600;7.558;2022-12-11T13:50:47;2.90;99.90
18948;DHT22;9607;51.600;7.558;2022-12-11T13:53:18;2.90;99.90
18948;DHT22;9607;51.600;7.558;2022-12-11T13:55:53;2.90;99.90
18948;DHT22;9607;51.600;7.558;2022-12-11T13:58:26;2.90;99.90
18948;DHT22;9607;51.600;7.558;2022-12-11T14:01:03;2.90;99.90
18948;DHT22;9607;51.600;7.558;2022-12-11T14:03:32;2.90;99.90
18948;DHT22;9607;51.600;7.558;2022-12-11T14:06:00;2.90;99.90
18948;DHT22;9607;51.600;7.558;2022-12-11T14:08:31;2.90;99.90
18948;DHT22;9607;51.600;7.558;2022-12-11T14:11:00;2.90;99.90
18948;DHT22;9607;51.600;7.558;2022-12-11T14:13:31;2.90;99.90
18948;DHT22;9607;51.600;7.558;2022-12-11T14:15:59;2.90;99.90
18948;DHT22;9607;51.600;7.558;2022-12-11T14:18:29;2.90;99.90
18948;DHT22;9607;51.600;7.558;2022-12-11T14:20:58;2.80;99.90
18948;DHT22;9607;51.600;7.558;2022-12-11T14:23:27;2.80;99.90
18948;DHT22;9607;51.600;7.558;2022-12-11T14:25:57;2.80;99.90
18948;DHT22;9607;51.600;7.558;2022-12-11T14:28:26;2.80;99.90
18948;DHT22;9607;51.600;7.558;2022-12-11T14:30:55;2.80;99.90
18948;DHT22;9607;51.600;7.558;2022-12-11T14:33:26;2.80;99.90
18948;DHT22;9607;51.600;7.558;2022-12-11T14:35:55;2.80;99.90
18948;DHT22;9607;51.600;7.558;2022-12-11T14:38:26;2.70;99.90
18948;DHT22;9607;51.600;7.558;2022-12-11T14:40:59;2.70;99.90
18948;DHT22;9607;51.600;7.558;2022-12-11T14:43:31;2.60;99.90
18948;DHT22;9607;51.600;7.558;2022-12-11T14:46:03;2.60;99.90
18948;DHT22;9607;51.600;7.558;2022-12-11T14:48:34;2.60;99.90
18948;DHT22;9607;51.600;7.558;2022-12-11T14:51:04;2.60;99.90
18948;DHT22;9607;51.600;7.558;2022-12-11T14:53:35;2.60;99.90
18948;DHT22;9607;51.600;7.558;2022-12-11T14:56:07;2.60;99.90
18948;DHT22;9607;51.600;7.558;2022-12-11T14:58:38;2.60;99.90
18948;DHT22;9607;51.600;7.558;2022-12-11T15:01:21;2.50;99.90
18948;DHT22;9607;51.600;7.558;2022-12-11T15:03:48;2.50;99.90
18948;DHT22;9607;51.600;7.558;2022-12-11T15:06:23;2.50;99.90
18948;DHT22;9607;51.600;7.558;2022-12-11T15:08:51;2.50;99.90
18948;DHT22;9607;51.600;7.558;2022-12-11T15:11:20;2.50;99.90
18948;DHT22;9607;51.600;7.558;2022-12-11T15:13:51;2.40;99.90
18948;DHT22;9607;51.600;7.558;2022-12-11T15:16:19;2.40;99.90
18948;DHT22;9607;51.600;7.558;2022-12-11T15:18:49;2.40;99.90
18948;DHT22;9607;51.600;7.558;2022-12-11T15:21:17;2.40;99.90
18948;DHT22;9607;51.600;7.558;2022-12-11T15:23:50;2.40;99.90
18948;DHT22;9607;51.600;7.558;2022-12-11T15:26:19;2.40;99.90
18948;DHT22;9607;51.600;7.558;2022-12-11T15:28:46;2.40;99.90
18948;DHT22;9607;51.600;7.558;2022-12-11T15:31:25;2.30;99.90
18948;DHT22;9607;51.600;7.558;2022-12-11T15:33:52;2.30;99.90
18948;DHT22;9607;51.600;7.558;2022-12-11T15:36:24;2.30;99.90
18948;DHT22;9607;51.600;7.558;2022-12-11T15:38:51;2.30;99.90
18948;DHT22;9607;51.600;7.558;2022-12-11T15:41:19;2.30;99.90
18948;DHT22;9607;51.600;7.558;2022-12-11T15:43:48;2.30;99.90
18948;DHT22;9607;51.600;7.558;2022-12-11T15:46:16;2.30;99.90
18948;DHT22;9607;51.600;7.558;2022-12-11T15:48:43;2.30;99.90
18948;DHT22;9607;51.600;7.558;2022-12-11T15:51:13;2.30;99.90
18948;DHT22;9607;51.600;7.558;2022-12-11T15:53:40;2.30;99.90
18948;DHT22;9607;51.600;7.558;2022-12-11T15:56:09;2.30;99.90
18948;DHT22;9607;51.600;7.558;2022-12-11T15:58:40;2.20;99.90
18948;DHT22;9607;51.600;7.558;2022-12-11T16:01:07;2.20;99.90
18948;DHT22;9607;51.600;7.558;2022-12-11T16:03:34;2.30;99.90
18948;DHT22;9607;51.600;7.558;2022-12-11T16:06:01;2.20;99.90
18948;DHT22;9607;51.600;7.558;2022-12-11T16:08:29;2.20;99.90
18948;DHT22;9607;51.600;7.558;2022-12-11T16:10:56;2.20;99.90
18948;DHT22;9607;51.600;7.558;2022-12-11T16:13:22;2.10;99.90
18948;DHT22;9607;51.600;7.558;2022-12-11T16:15:50;2.10;99.90
18948;DHT22;9607;51.600;7.558;2022-12-11T16:18:20;2.10;99.90
18948;DHT22;9607;51.600;7.558;2022-12-11T16:20:48;2.10;99.90
18948;DHT22;9607;51.600;7.558;2022-12-11T16:23:16;2.10;99.90
18948;DHT22;9607;51.600;7.558;2022-12-11T16:25:44;2.10;99.90
18948;DHT22;9607;51.600;7.558;2022-12-11T16:28:13;2.10;99.90
18948;DHT22;9607;51.600;7.558;2022-12-11T16:30:41;2.20;99.90
18948;DHT22;9607;51.600;7.558;2022-12-11T16:33:10;2.20;99.90
18948;DHT22;9607;51.600;7.558;2022-12-11T16:35:38;2.10;99.90
18948;DHT22;9607;51.600;7.558;2022-12-11T16:38:04;2.10;99.90
18948;DHT22;9607;51.600;7.558;2022-12-11T16:40:32;2.20;99.90
18948;DHT22;9607;51.600;7.558;2022-12-11T16:42:58;2.20;99.90
18948;DHT22;9607;51.600;7.558;2022-12-11T16:45:26;2.10;99.90
18948;DHT22;9607;51.600;7.558;2022-12-11T16:47:53;2.10;99.90
18948;DHT22;9607;51.600;7.558;2022-12-11T16:50:21;2.20;99.90
18948;DHT22;9607;51.600;7.558;2022-12-11T16:52:49;2.20;99.90
18948;DHT22;9607;51.600;7.558;2022-12-11T16:55:16;2.20;99.90
18948;DHT22;9607;51.600;7.558;2022-12-11T16:57:46;2.20;99.90
18948;DHT22;9607;51.600;7.558;2022-12-11T17:00:14;2.20;99.90
18948;DHT22;9607;51.600;7.558;2022-12-11T17:02:41;2.20;99.90
18948;DHT22;9607;51.600;7.558;2022-12-11T17:05:08;2.20;99.90
18948;DHT22;9607;51.600;7.558;2022-12-11T17:07:36;2.20;99.90
18948;DHT22;9607;51.600;7.558;2022-12-11T17:10:03;2.10;99.90
18948;DHT22;9607;51.600;7.558;2022-12-11T17:12:30;2.20;99.90
18948;DHT22;9607;51.600;7.558;2022-12-11T17:14:57;2.20;99.90
18948;DHT22;9607;51.600;7.558;2022-12-11T17:17:24;2.10;99.90
18948;DHT22;9607;51.600;7.558;2022-12-11T17:19:51;2.20;99.90